createdAt,value
2019-05-05T00:01:36.776Z,26.23
2019-05-05T00:04:10.119Z,17.35
2019-05-05T00:06:41.261Z,19.23
2019-05-05T00:09:11.324Z,21.55
2019-05-05T00:12:00.150Z,18.50
2019-05-05T00:14:47.587Z,22.45
2019-05-05T00:17:22.595Z,26.75
2019-05-05T00:19:54.939Z,14.65
2019-05-05T00:22:24.641Z,23.20
2019-05-05T00:24:55.313Z,20.45
2019-05-05T00:27:25.662Z,25.60
2019-05-05T00:29:55.531Z,18.05
2019-05-05T00:32:25.419Z,25.35
2019-05-05T00:34:55.631Z,19.77
2019-05-05T00:37:25.768Z,16.15
2019-05-05T00:39:55.853Z,28.80
2019-05-05T00:42:25.642Z,23.70
2019-05-05T00:44:55.424Z,22.20
2019-05-05T00:47:34.453Z,23.87
2019-05-05T00:50:08.275Z,18.00
2019-05-05T00:52:38.092Z,23.02
2019-05-05T00:55:08.310Z,21.97
2019-05-05T00:57:38.063Z,18.70
2019-05-05T01:00:15.232Z,23.67
2019-05-05T01:02:47.724Z,16.62
2019-05-05T01:05:19.155Z,21.73
2019-05-05T01:07:49.703Z,24.87
2019-05-05T01:10:20.529Z,20.00
2019-05-05T01:12:50.303Z,23.70
2019-05-05T01:15:20.398Z,23.83
2019-05-05T01:17:50.326Z,24.05
2019-05-05T01:20:20.123Z,30.88
2019-05-05T01:22:49.948Z,16.48
2019-05-05T01:25:20.099Z,18.35
2019-05-05T01:27:49.944Z,23.00
2019-05-05T01:30:25.890Z,19.98
2019-05-05T01:33:00.339Z,18.85
2019-05-05T01:35:30.177Z,24.72
2019-05-05T01:38:04.939Z,25.95
2019-05-05T01:40:54.754Z,23.65
2019-05-05T01:43:25.409Z,20.27
2019-05-05T01:45:55.495Z,17.32
2019-05-05T01:48:25.286Z,27.32
2019-05-05T01:50:55.897Z,22.17
2019-05-05T01:53:25.685Z,20.77
2019-05-05T01:55:57.680Z,24.27
2019-05-05T01:58:27.501Z,23.67
2019-05-05T02:00:57.467Z,19.30
2019-05-05T02:03:27.241Z,18.35
2019-05-05T02:05:57.106Z,25.43
2019-05-05T02:08:27.231Z,26.52
2019-05-05T02:10:57.648Z,19.32
2019-05-05T02:13:27.478Z,23.20
2019-05-05T02:15:57.274Z,21.00
2019-05-05T02:18:27.060Z,19.90
2019-05-05T02:21:05.918Z,22.13
2019-05-05T02:23:37.023Z,24.02
2019-05-05T02:26:08.569Z,18.15
2019-05-05T02:29:05.502Z,25.12
2019-05-05T02:31:55.881Z,27.30
2019-05-05T02:34:29.227Z,23.83
2019-05-05T02:36:59.966Z,27.50
2019-05-05T02:39:29.950Z,18.62
2019-05-05T02:42:00.691Z,22.35
2019-05-05T02:44:34.740Z,25.90
2019-05-05T02:47:09.250Z,21.82
2019-05-05T02:49:40.134Z,21.97
2019-05-05T02:52:11.051Z,18.37
2019-05-05T02:54:41.901Z,22.07
2019-05-05T02:57:14.934Z,18.02
2019-05-05T02:59:59.142Z,22.00
2019-05-05T03:02:31.561Z,28.47
2019-05-05T03:05:04.211Z,20.00
2019-05-05T03:07:36.142Z,18.70
2019-05-05T03:10:08.561Z,19.77
2019-05-05T03:12:40.820Z,18.00
2019-05-05T03:15:14.292Z,22.25
2019-05-05T03:17:45.354Z,24.50
2019-05-05T03:20:15.827Z,22.32
2019-05-05T03:22:45.673Z,24.85
2019-05-05T03:25:15.721Z,20.82
2019-05-05T03:27:45.600Z,22.90
2019-05-05T03:30:15.711Z,22.30
2019-05-05T03:32:46.417Z,19.62
2019-05-05T03:35:17.624Z,21.25
2019-05-05T03:37:47.436Z,23.98
2019-05-05T03:40:19.107Z,18.25
2019-05-05T03:43:09.682Z,28.25
2019-05-05T03:45:54.304Z,25.50
2019-05-05T03:48:24.714Z,19.05
2019-05-05T03:50:54.792Z,26.68
2019-05-05T03:53:25.389Z,22.50
2019-05-05T03:55:55.403Z,20.43
2019-05-05T03:58:27.098Z,22.42
2019-05-05T04:01:27.308Z,20.20
2019-05-05T04:03:58.750Z,16.62
2019-05-05T04:06:38.605Z,21.17
2019-05-05T04:09:08.830Z,18.87
2019-05-05T04:11:39.592Z,19.65
2019-05-05T04:14:10.554Z,16.48
2019-05-05T04:16:43.592Z,23.35
2019-05-05T04:19:15.968Z,19.57
2019-05-05T04:21:46.760Z,28.00
2019-05-05T04:24:16.652Z,22.75
2019-05-05T04:26:46.437Z,24.75
2019-05-05T04:29:16.662Z,24.52
2019-05-05T04:31:46.461Z,28.30
2019-05-05T04:34:16.509Z,29.85
2019-05-05T04:36:46.572Z,16.93
2019-05-05T04:39:16.349Z,19.48
2019-05-05T04:41:46.414Z,25.08
2019-05-05T04:44:17.905Z,18.42
2019-05-05T04:46:49.327Z,20.15
2019-05-05T04:49:30.186Z,20.57
2019-05-05T04:52:04.001Z,19.80
2019-05-05T04:54:38.362Z,20.48
2019-05-05T04:57:08.153Z,25.57
2019-05-05T04:59:38.882Z,25.85
2019-05-05T05:02:10.337Z,26.40
2019-05-05T05:04:53.561Z,21.60
2019-05-05T05:07:24.479Z,20.80
2019-05-05T05:09:54.466Z,23.65
2019-05-05T05:12:24.279Z,24.92
2019-05-05T05:14:54.691Z,18.02
2019-05-05T05:17:27.281Z,21.85
2019-05-05T05:19:57.059Z,28.12
2019-05-05T05:22:26.887Z,22.22
2019-05-05T05:24:56.660Z,25.90
2019-05-05T05:27:26.452Z,21.25
2019-05-05T05:29:56.479Z,21.70
2019-05-05T05:32:26.449Z,16.17
2019-05-05T05:34:56.302Z,22.35
2019-05-05T05:37:26.513Z,21.30
2019-05-05T05:40:01.161Z,25.65
2019-05-05T05:42:33.444Z,21.35
2019-05-05T05:45:04.390Z,18.37
2019-05-05T05:47:37.130Z,19.15
2019-05-05T05:50:09.285Z,19.12
2019-05-05T05:52:39.063Z,20.12
2019-05-05T05:55:10.215Z,23.77
2019-05-05T05:57:40.105Z,21.48
2019-05-05T06:00:10.555Z,18.10
2019-05-05T06:02:40.335Z,27.62
2019-05-05T06:05:10.163Z,21.80
2019-05-05T06:07:39.944Z,20.72
2019-05-05T06:10:21.348Z,16.20
2019-05-05T06:12:44.909Z,27.13
2019-05-05T06:15:15.158Z,22.60
2019-05-05T06:17:45.198Z,23.27
2019-05-05T06:20:15.226Z,23.90
2019-05-05T06:22:45.023Z,29.10
2019-05-05T06:25:16.142Z,20.97
2019-05-05T06:27:46.435Z,24.20
2019-05-05T06:30:16.734Z,22.77
2019-05-05T06:32:47.437Z,16.97
2019-05-05T06:35:17.278Z,17.50
2019-05-05T06:37:54.375Z,25.12
2019-05-05T06:40:34.181Z,19.30
2019-05-05T06:43:05.655Z,27.77
2019-05-05T06:45:37.082Z,21.57
2019-05-05T06:48:07.247Z,24.02
2019-05-05T06:50:37.366Z,20.50
2019-05-05T06:53:07.138Z,17.25
2019-05-05T06:55:37.505Z,18.95
2019-05-05T06:58:07.695Z,26.60
2019-05-05T07:00:37.696Z,25.92
2019-05-05T07:03:07.937Z,21.50
2019-05-05T07:05:37.796Z,21.17
2019-05-05T07:08:08.406Z,17.77
2019-05-05T07:10:39.334Z,19.50
2019-05-05T07:13:09.130Z,18.00
2019-05-05T07:15:39.966Z,15.50
2019-05-05T07:18:09.772Z,21.97
2019-05-05T07:20:39.728Z,19.02
2019-05-05T07:23:09.916Z,16.10
2019-05-05T07:25:43.056Z,16.05
2019-05-05T07:28:14.501Z,16.67
2019-05-05T07:30:44.939Z,17.17
2019-05-05T07:33:14.962Z,18.75
2019-05-05T07:35:56.682Z,15.83
2019-05-05T07:38:19.323Z,16.20
2019-05-05T07:40:49.105Z,20.00
2019-05-05T07:43:19.683Z,17.42
2019-05-05T07:45:49.580Z,13.75
2019-05-05T07:48:19.358Z,19.32
2019-05-05T07:51:01.222Z,16.82
2019-05-05T07:53:24.325Z,17.75
2019-05-05T07:55:54.292Z,14.75
2019-05-05T07:58:24.334Z,13.55
2019-05-05T08:00:54.549Z,12.03
2019-05-05T08:03:24.346Z,17.23
2019-05-05T08:05:54.552Z,15.03
2019-05-05T08:08:24.567Z,13.83
2019-05-05T08:10:54.590Z,17.00
2019-05-05T08:13:24.430Z,12.28
2019-05-05T08:15:59.828Z,14.05
2019-05-05T08:18:30.569Z,13.15
2019-05-05T08:21:04.385Z,12.43
2019-05-05T08:23:36.198Z,12.68
2019-05-05T08:26:24.531Z,12.10
2019-05-05T08:28:56.029Z,9.30
2019-05-05T08:31:44.852Z,10.93
2019-05-05T08:34:14.654Z,10.82
2019-05-05T08:36:44.993Z,14.83
2019-05-05T08:39:14.835Z,7.75
2019-05-05T08:41:47.300Z,10.55
2019-05-05T08:44:18.008Z,16.07
2019-05-05T08:46:47.914Z,9.35
2019-05-05T08:49:18.722Z,10.20
2019-05-05T08:51:48.509Z,11.00
2019-05-05T08:54:18.335Z,15.18
2019-05-05T08:56:48.836Z,13.28
2019-05-05T08:59:18.847Z,9.98
2019-05-05T09:01:48.681Z,11.22
2019-05-05T09:04:18.482Z,12.25
2019-05-05T09:06:48.284Z,12.85
2019-05-05T09:09:18.286Z,12.82
2019-05-05T09:11:48.768Z,11.73
2019-05-05T09:14:18.565Z,9.33
2019-05-05T09:16:48.398Z,6.83
2019-05-05T09:19:19.858Z,11.73
2019-05-05T09:21:49.639Z,6.65
2019-05-05T09:24:21.097Z,7.92
2019-05-05T09:26:59.062Z,8.88
2019-05-05T09:29:44.122Z,10.20
2019-05-05T09:32:14.786Z,8.43
2019-05-05T09:34:44.638Z,8.30
2019-05-05T09:37:14.533Z,10.28
2019-05-05T09:39:44.727Z,8.53
2019-05-05T09:42:14.741Z,9.50
2019-05-05T09:44:44.738Z,10.13
2019-05-05T09:47:14.520Z,8.68
2019-05-05T09:49:44.694Z,9.90
2019-05-05T09:52:14.744Z,12.15
2019-05-05T09:54:44.531Z,6.45
2019-05-05T09:57:14.674Z,7.47
2019-05-05T09:59:44.789Z,4.67
2019-05-05T10:02:14.567Z,7.75
2019-05-05T10:04:44.431Z,6.45
2019-05-05T10:07:14.244Z,6.20
2019-05-05T10:09:44.103Z,4.85
2019-05-05T10:12:13.912Z,7.35
2019-05-05T10:14:44.889Z,7.75
2019-05-05T10:17:15.485Z,7.78
2019-05-05T10:19:45.382Z,9.10
2019-05-05T10:22:15.193Z,7.20
2019-05-05T10:24:55.177Z,8.80
2019-05-05T10:27:24.306Z,9.13
2019-05-05T10:29:54.720Z,9.40
2019-05-05T10:32:24.791Z,8.55
2019-05-05T10:34:59.178Z,7.90
2019-05-05T10:37:28.964Z,7.30
2019-05-05T10:39:59.008Z,8.08
2019-05-05T10:42:47.861Z,13.43
2019-05-05T10:45:19.354Z,8.08
2019-05-05T10:47:49.914Z,11.43
2019-05-05T10:50:19.930Z,12.63
2019-05-05T10:52:49.970Z,10.60
2019-05-05T10:55:21.363Z,13.28
2019-05-05T10:57:51.184Z,12.45
2019-05-05T11:00:41.495Z,12.37
2019-05-05T11:03:11.385Z,8.93
2019-05-05T11:05:41.639Z,13.38
2019-05-05T11:08:13.732Z,15.83
2019-05-05T11:10:45.005Z,20.02
2019-05-05T11:13:15.694Z,14.18
2019-05-05T11:15:45.631Z,13.08
2019-05-05T11:18:15.443Z,8.83
2019-05-05T11:20:45.835Z,10.43
2019-05-05T11:23:15.674Z,8.98
2019-05-05T11:25:45.461Z,12.18
2019-05-05T11:28:15.516Z,11.70
2019-05-05T11:30:47.397Z,12.43
2019-05-05T11:33:35.304Z,11.80
2019-05-05T11:36:09.670Z,10.63
2019-05-05T11:38:41.715Z,11.18
2019-05-05T11:41:14.357Z,13.53
2019-05-05T11:43:45.238Z,15.98
2019-05-05T11:46:15.099Z,7.53
2019-05-05T11:48:45.227Z,9.40
2019-05-05T11:51:15.302Z,10.75
2019-05-05T11:53:45.032Z,11.90
2019-05-05T11:56:15.163Z,8.98
2019-05-05T11:58:44.981Z,10.32
2019-05-05T12:01:15.098Z,10.25
2019-05-05T12:03:44.890Z,7.03
2019-05-05T12:06:14.949Z,8.90
2019-05-05T12:08:46.315Z,11.00
2019-05-05T12:11:16.321Z,9.10
2019-05-05T12:13:46.157Z,8.53
2019-05-05T12:16:17.630Z,9.95
2019-05-05T12:18:48.378Z,9.55
2019-05-05T12:21:18.329Z,8.93
2019-05-05T12:23:48.190Z,10.43
2019-05-05T12:26:29.061Z,7.62
2019-05-05T12:29:00.486Z,12.30
2019-05-05T12:31:33.866Z,7.92
2019-05-05T12:34:03.993Z,8.95
2019-05-05T12:36:34.280Z,8.23
2019-05-05T12:39:08.065Z,10.10
2019-05-05T12:41:37.915Z,6.78
2019-05-05T12:44:09.414Z,12.60
2019-05-05T12:46:44.631Z,9.98
2019-05-05T12:49:14.559Z,13.68
2019-05-05T12:51:44.345Z,10.28
2019-05-05T12:54:14.820Z,11.22
2019-05-05T12:56:44.795Z,12.13
2019-05-05T12:59:16.436Z,13.20
2019-05-05T13:01:47.136Z,13.20
2019-05-05T13:04:17.660Z,12.10
2019-05-05T13:06:47.403Z,12.78
2019-05-05T13:09:17.892Z,14.45
2019-05-05T13:11:47.707Z,12.07
2019-05-05T13:14:17.552Z,9.35
2019-05-05T13:16:53.028Z,13.25
2019-05-05T13:19:24.316Z,15.32
2019-05-05T13:22:15.660Z,10.45
2019-05-05T13:24:56.888Z,9.98
2019-05-05T13:27:35.279Z,11.85
2019-05-05T13:30:10.132Z,11.35
2019-05-05T13:32:39.922Z,16.50
2019-05-05T13:35:09.989Z,10.78
2019-05-05T13:37:40.146Z,10.00
2019-05-05T13:40:10.506Z,13.65
2019-05-05T13:42:41.259Z,18.27
2019-05-05T13:45:20.404Z,13.90
2019-05-05T13:47:50.256Z,12.15
2019-05-05T13:50:23.880Z,12.33
2019-05-05T13:52:53.932Z,15.10
2019-05-05T13:55:25.019Z,10.25
2019-05-05T13:57:54.928Z,12.13
2019-05-05T14:00:25.690Z,14.13
2019-05-05T14:02:55.521Z,13.30
2019-05-05T14:05:25.859Z,12.15
2019-05-05T14:07:55.669Z,11.28
2019-05-05T14:10:25.470Z,11.08
2019-05-05T14:12:55.903Z,13.03
2019-05-05T14:15:26.650Z,12.28
2019-05-05T14:17:56.489Z,11.20
2019-05-05T14:20:26.467Z,13.50
2019-05-05T14:22:56.654Z,11.80
2019-05-05T14:25:28.114Z,10.58
2019-05-05T14:27:58.277Z,13.98
2019-05-05T14:30:40.282Z,14.33
2019-05-05T14:33:11.715Z,12.58
2019-05-05T14:36:01.245Z,12.73
2019-05-05T14:38:34.376Z,13.85
2019-05-05T14:41:04.328Z,13.68
2019-05-05T14:43:34.958Z,13.90
2019-05-05T14:46:04.910Z,12.35
2019-05-05T14:48:37.226Z,15.20
2019-05-05T14:51:07.022Z,8.90
2019-05-05T14:53:37.551Z,14.05
2019-05-05T14:56:07.336Z,10.85
2019-05-05T14:58:38.049Z,7.75
2019-05-05T15:01:09.013Z,10.03
2019-05-05T15:03:38.796Z,7.28
2019-05-05T15:06:23.931Z,8.53
2019-05-05T15:09:03.780Z,8.50
2019-05-05T15:11:38.103Z,13.55
2019-05-05T15:14:08.782Z,9.10
2019-05-05T15:16:38.560Z,9.38
2019-05-05T15:19:08.417Z,9.70
2019-05-05T15:21:38.522Z,9.35
2019-05-05T15:24:08.310Z,7.95
2019-05-05T15:26:49.083Z,7.83
2019-05-05T15:29:09.813Z,7.47
2019-05-05T15:31:40.377Z,8.53
2019-05-05T15:34:11.538Z,8.30
2019-05-05T15:36:41.323Z,9.23
2019-05-05T15:39:11.124Z,11.35
2019-05-05T15:41:41.794Z,7.72
2019-05-05T15:44:13.409Z,9.45
2019-05-05T15:46:44.222Z,10.80
2019-05-05T15:49:14.238Z,9.23
2019-05-05T15:51:44.318Z,14.87
2019-05-05T15:54:15.368Z,15.83
2019-05-05T15:56:46.318Z,9.48
2019-05-05T15:59:16.099Z,10.43
2019-05-05T16:01:46.101Z,9.93
2019-05-05T16:04:15.961Z,7.83
2019-05-05T16:06:46.065Z,9.38
2019-05-05T16:09:21.573Z,7.17
2019-05-05T16:11:51.530Z,9.00
2019-05-05T16:14:23.706Z,9.25
2019-05-05T16:17:13.538Z,9.88
2019-05-05T16:19:50.590Z,8.73
2019-05-05T16:22:35.012Z,6.78
2019-05-05T16:25:17.005Z,5.45
2019-05-05T16:27:48.334Z,7.47
2019-05-05T16:30:19.659Z,6.30
2019-05-05T16:32:50.492Z,6.78
2019-05-05T16:35:21.461Z,8.90
2019-05-05T16:37:51.463Z,6.78
2019-05-05T16:40:23.235Z,10.85
2019-05-05T16:42:54.346Z,11.48
2019-05-05T16:45:24.676Z,7.05
2019-05-05T16:47:55.481Z,8.50
2019-05-05T16:50:26.171Z,7.50
2019-05-05T16:53:06.549Z,5.22
2019-05-05T16:55:38.273Z,7.30
2019-05-05T16:58:08.711Z,6.08
2019-05-05T17:00:38.874Z,8.10
2019-05-05T17:03:13.453Z,9.23
2019-05-05T17:05:46.557Z,7.65
2019-05-05T17:08:16.074Z,6.37
2019-05-05T17:10:45.988Z,7.12
2019-05-05T17:13:26.557Z,6.20
2019-05-05T17:16:13.468Z,7.00
2019-05-05T17:18:48.249Z,9.90
2019-05-05T17:21:19.722Z,7.42
2019-05-05T17:23:49.504Z,7.15
2019-05-05T17:26:19.804Z,11.38
2019-05-05T17:28:49.641Z,8.38
2019-05-05T17:31:19.647Z,7.58
2019-05-05T17:33:50.095Z,9.08
2019-05-05T17:36:21.309Z,10.72
2019-05-05T17:38:51.103Z,11.60
2019-05-05T17:41:34.100Z,16.02
2019-05-05T17:44:05.603Z,10.13
2019-05-05T17:46:40.580Z,9.08
2019-05-05T17:49:14.137Z,10.68
2019-05-05T17:51:47.776Z,9.50
2019-05-05T17:54:24.202Z,12.75
2019-05-05T17:56:55.180Z,6.55
2019-05-05T17:59:25.869Z,9.45
2019-05-05T18:01:56.124Z,5.67
2019-05-05T18:04:26.320Z,7.33
2019-05-05T18:07:04.275Z,8.15
2019-05-05T18:09:53.935Z,6.95
2019-05-05T18:12:25.532Z,7.47
2019-05-05T18:14:57.641Z,11.57
2019-05-05T18:17:27.765Z,7.25
2019-05-05T18:19:58.547Z,12.15
2019-05-05T18:22:28.319Z,11.80
2019-05-05T18:24:58.136Z,8.50
2019-05-05T18:27:28.757Z,9.90
2019-05-05T18:29:58.539Z,10.53
2019-05-05T18:32:28.355Z,8.53
2019-05-05T18:34:58.845Z,8.60
2019-05-05T18:37:28.619Z,7.72
2019-05-05T18:39:58.425Z,9.03
2019-05-05T18:42:28.675Z,12.45
2019-05-05T18:45:00.343Z,9.70
2019-05-05T18:47:30.152Z,7.80
2019-05-05T18:49:59.986Z,7.42
2019-05-05T18:52:30.095Z,10.10
2019-05-05T18:55:00.000Z,8.40
2019-05-05T18:57:29.769Z,9.75
2019-05-05T19:00:00.408Z,7.50
2019-05-05T19:02:34.684Z,9.53
2019-05-05T19:05:27.602Z,12.30
2019-05-05T19:07:59.046Z,9.25
2019-05-05T19:10:28.997Z,13.45
2019-05-05T19:12:58.780Z,10.28
2019-05-05T19:15:28.608Z,9.88
2019-05-05T19:17:58.472Z,12.53
2019-05-05T19:20:38.690Z,11.28
2019-05-05T19:23:08.543Z,8.95
2019-05-05T19:25:38.338Z,12.10
2019-05-05T19:28:08.160Z,10.32
2019-05-05T19:30:38.872Z,17.57
2019-05-05T19:33:08.648Z,24.55
2019-05-05T19:35:44.093Z,17.85
2019-05-05T19:38:10.799Z,20.32
2019-05-05T19:40:40.863Z,22.42
2019-05-05T19:43:11.128Z,17.45
2019-05-05T19:45:40.915Z,20.50
2019-05-05T19:48:10.825Z,12.82
2019-05-05T19:50:44.452Z,22.25
2019-05-05T19:53:24.929Z,18.92
2019-05-05T19:55:57.560Z,20.32
2019-05-05T19:58:28.315Z,18.17
2019-05-05T20:00:59.817Z,20.27
2019-05-05T20:03:34.667Z,24.05
2019-05-05T20:06:04.872Z,24.50
2019-05-05T20:08:40.983Z,19.65
2019-05-05T20:11:07.496Z,19.42
2019-05-05T20:13:37.936Z,16.52
2019-05-05T20:16:27.436Z,21.05
2019-05-05T20:18:58.173Z,17.67
2019-05-05T20:21:27.956Z,14.83
2019-05-05T20:23:57.771Z,14.53
2019-05-05T20:26:28.306Z,17.60
2019-05-05T20:29:10.464Z,16.23
2019-05-05T20:31:30.476Z,12.95
2019-05-05T20:34:03.951Z,13.53
2019-05-05T20:36:37.280Z,13.05
2019-05-05T20:39:08.333Z,12.40
2019-05-05T20:41:38.188Z,12.45
2019-05-05T20:44:08.016Z,13.68
2019-05-05T20:46:38.052Z,12.73
2019-05-05T20:49:07.848Z,9.93
2019-05-05T20:51:38.049Z,11.25
2019-05-05T20:54:07.834Z,12.45
2019-05-05T20:56:37.616Z,12.43
2019-05-05T20:59:07.494Z,16.48
2019-05-05T21:01:37.339Z,12.70
2019-05-05T21:04:08.257Z,13.32
2019-05-05T21:06:38.083Z,10.05
2019-05-05T21:09:08.467Z,17.60
2019-05-05T21:11:38.460Z,14.35
2019-05-05T21:14:08.325Z,14.23
2019-05-05T21:16:38.104Z,12.23
2019-05-05T21:19:08.317Z,12.07
2019-05-05T21:21:44.524Z,8.48
2019-05-05T21:24:14.651Z,10.18
2019-05-05T21:26:46.059Z,13.50
2019-05-05T21:29:16.750Z,10.10
2019-05-05T21:31:46.826Z,10.95
2019-05-05T21:34:16.690Z,10.82
2019-05-05T21:36:46.574Z,8.88
2019-05-05T21:39:16.880Z,12.15
2019-05-05T21:41:46.666Z,12.82
2019-05-05T21:44:16.572Z,11.25
2019-05-05T21:46:46.355Z,11.95
2019-05-05T21:49:16.872Z,8.20
2019-05-05T21:51:48.320Z,9.30
2019-05-05T21:54:28.514Z,8.83
2019-05-05T21:57:16.824Z,13.35
2019-05-05T21:59:55.533Z,12.15
2019-05-05T22:02:20.020Z,14.98
2019-05-05T22:04:50.328Z,9.05
2019-05-05T22:07:20.099Z,9.03
2019-05-05T22:09:50.209Z,8.65
2019-05-05T22:12:20.020Z,10.72
2019-05-05T22:14:49.805Z,9.30
2019-05-05T22:17:20.129Z,8.28
2019-05-05T22:19:51.700Z,12.68
2019-05-05T22:22:23.116Z,12.28
2019-05-05T22:24:54.051Z,10.45
2019-05-05T22:27:24.016Z,9.98
2019-05-05T22:30:02.472Z,11.48
2019-05-05T22:32:26.054Z,9.20
2019-05-05T22:34:56.420Z,10.85
2019-05-05T22:37:26.616Z,10.72
2019-05-05T22:39:56.440Z,11.18
2019-05-05T22:42:26.311Z,8.38
2019-05-05T22:44:56.260Z,10.58
2019-05-05T22:47:26.054Z,10.32
2019-05-05T22:49:56.398Z,9.83
2019-05-05T22:52:26.608Z,10.08
2019-05-05T22:54:56.384Z,5.85
2019-05-05T22:57:26.211Z,11.48
2019-05-05T22:59:56.389Z,9.15
2019-05-05T23:02:27.816Z,7.42
2019-05-05T23:04:59.273Z,10.18
2019-05-05T23:07:30.764Z,9.53
2019-05-05T23:10:01.252Z,9.50
2019-05-05T23:12:31.804Z,13.08
2019-05-05T23:15:01.576Z,6.80
2019-05-05T23:17:35.736Z,9.83
2019-05-05T23:20:33.892Z,9.63
2019-05-05T23:23:07.645Z,10.95
2019-05-05T23:25:39.011Z,9.50
2019-05-05T23:28:08.787Z,9.00
2019-05-05T23:30:41.867Z,8.08
2019-05-05T23:33:10.159Z,13.03
2019-05-05T23:35:39.941Z,7.70
2019-05-05T23:38:09.740Z,10.00
2019-05-05T23:40:39.760Z,9.20
2019-05-05T23:43:09.544Z,11.63
2019-05-05T23:45:39.410Z,9.90
2019-05-05T23:48:09.943Z,9.90
2019-05-05T23:50:39.879Z,13.38
2019-05-05T23:53:09.664Z,13.53
2019-05-05T23:55:39.472Z,8.35
2019-05-05T23:58:09.452Z,13.32
